sensor_id;sensor_type;location;lat;lon;timestamp;temperature;humidity
61916;DHT22;47868;51.326;6.550;2022-07-29T00:02:12;22.10;56.00
61916;DHT22;47868;51.326;6.550;2022-07-29T00:04:39;22.10;56.20
61916;DHT22;47868;51.326;6.550;2022-07-29T00:07:05;22.00;56.00
61916;DHT22;47868;51.326;6.550;2022-07-29T00:09:31;22.00;56.40
61916;DHT22;47868;51.326;6.550;2022-07-29T00:12:00;22.10;56.40
61916;DHT22;47868;51.326;6.550;2022-07-29T00:14:26;22.10;56.50
61916;DHT22;47868;51.326;6.550;2022-07-29T00:16:52;22.10;56.00
61916;DHT22;47868;51.326;6.550;2022-07-29T00:19:18;22.00;56.40
61916;DHT22;47868;51.326;6.550;2022-07-29T00:21:44;22.00;55.80
61916;DHT22;47868;51.326;6.550;2022-07-29T00:24:09;22.00;56.00
61916;DHT22;47868;51.326;6.550;2022-07-29T00:26:35;21.90;56.10
61916;DHT22;47868;51.326;6.550;2022-07-29T00:29:02;22.00;56.70
61916;DHT22;47868;51.326;6.550;2022-07-29T00:31:29;22.00;56.30
61916;DHT22;47868;51.326;6.550;2022-07-29T00:33:55;21.90;56.40
61916;DHT22;47868;51.326;6.550;2022-07-29T00:36:21;22.00;56.50
61916;DHT22;47868;51.326;6.550;2022-07-29T00:38:50;21.90;56.40
61916;DHT22;47868;51.326;6.550;2022-07-29T00:41:17;21.90;56.70
61916;DHT22;47868;51.326;6.550;2022-07-29T00:43:44;21.90;55.90
61916;DHT22;47868;51.326;6.550;2022-07-29T00:46:10;21.90;56.60
61916;DHT22;47868;51.326;6.550;2022-07-29T00:48:36;21.90;56.40
61916;DHT22;47868;51.326;6.550;2022-07-29T00:51:03;21.90;56.30
61916;DHT22;47868;51.326;6.550;2022-07-29T00:53:30;21.90;56.40
61916;DHT22;47868;51.326;6.550;2022-07-29T00:55:56;21.90;56.40
61916;DHT22;47868;51.326;6.550;2022-07-29T00:58:23;21.90;56.80
61916;DHT22;47868;51.326;6.550;2022-07-29T01:00:49;21.80;56.50
61916;DHT22;47868;51.326;6.550;2022-07-29T01:03:15;21.80;56.90
61916;DHT22;47868;51.326;6.550;2022-07-29T01:05:41;21.80;56.70
61916;DHT22;47868;51.326;6.550;2022-07-29T01:08:08;21.80;57.20
61916;DHT22;47868;51.326;6.550;2022-07-29T01:10:37;21.80;57.00
61916;DHT22;47868;51.326;6.550;2022-07-29T01:13:03;21.80;56.80
61916;DHT22;47868;51.326;6.550;2022-07-29T01:15:30;21.80;57.60
61916;DHT22;47868;51.326;6.550;2022-07-29T01:18:03;21.80;57.00
61916;DHT22;47868;51.326;6.550;2022-07-29T01:31:47;21.80;57.40
61916;DHT22;47868;51.326;6.550;2022-07-29T01:39:54;21.70;57.50
61916;DHT22;47868;51.326;6.550;2022-07-29T01:45:15;21.70;57.70
61916;DHT22;47868;51.326;6.550;2022-07-29T01:47:46;21.70;58.20
61916;DHT22;47868;51.326;6.550;2022-07-29T01:50:16;21.70;58.10
61916;DHT22;47868;51.326;6.550;2022-07-29T01:53:06;21.70;57.60
61916;DHT22;47868;51.326;6.550;2022-07-29T01:55:36;21.70;57.70
61916;DHT22;47868;51.326;6.550;2022-07-29T01:58:04;21.70;57.60
61916;DHT22;47868;51.326;6.550;2022-07-29T02:00:32;21.70;57.50
61916;DHT22;47868;51.326;6.550;2022-07-29T02:03:00;21.60;57.30
61916;DHT22;47868;51.326;6.550;2022-07-29T02:05:28;21.40;57.70
61916;DHT22;47868;51.326;6.550;2022-07-29T02:07:56;21.20;58.60
61916;DHT22;47868;51.326;6.550;2022-07-29T02:10:34;20.70;59.90
61916;DHT22;47868;51.326;6.550;2022-07-29T02:13:02;20.70;60.90
61916;DHT22;47868;51.326;6.550;2022-07-29T02:15:30;20.60;61.70
61916;DHT22;47868;51.326;6.550;2022-07-29T02:18:01;20.60;61.50
61916;DHT22;47868;51.326;6.550;2022-07-29T02:20:28;20.70;61.00
61916;DHT22;47868;51.326;6.550;2022-07-29T02:22:55;20.70;61.60
61916;DHT22;47868;51.326;6.550;2022-07-29T02:25:23;20.60;61.50
61916;DHT22;47868;51.326;6.550;2022-07-29T02:27:50;20.50;62.20
61916;DHT22;47868;51.326;6.550;2022-07-29T02:30:18;20.50;62.30
61916;DHT22;47868;51.326;6.550;2022-07-29T02:32:45;20.60;63.00
61916;DHT22;47868;51.326;6.550;2022-07-29T02:35:13;20.60;62.50
61916;DHT22;47868;51.326;6.550;2022-07-29T02:37:43;20.70;62.40
61916;DHT22;47868;51.326;6.550;2022-07-29T02:40:11;20.50;62.10
61916;DHT22;47868;51.326;6.550;2022-07-29T02:42:42;20.50;62.90
61916;DHT22;47868;51.326;6.550;2022-07-29T02:45:09;20.50;63.00
61916;DHT22;47868;51.326;6.550;2022-07-29T02:47:47;20.50;62.80
61916;DHT22;47868;51.326;6.550;2022-07-29T02:50:24;20.50;62.80
61916;DHT22;47868;51.326;6.550;2022-07-29T02:53:04;20.50;63.40
61916;DHT22;47868;51.326;6.550;2022-07-29T02:55:47;20.40;63.60
61916;DHT22;47868;51.326;6.550;2022-07-29T02:58:33;20.30;63.90
61916;DHT22;47868;51.326;6.550;2022-07-29T03:01:03;20.40;65.20
61916;DHT22;47868;51.326;6.550;2022-07-29T03:03:36;20.50;65.00
61916;DHT22;47868;51.326;6.550;2022-07-29T03:06:03;20.60;65.00
61916;DHT22;47868;51.326;6.550;2022-07-29T03:08:32;20.40;64.80
61916;DHT22;47868;51.326;6.550;2022-07-29T03:10:58;20.50;65.40
61916;DHT22;47868;51.326;6.550;2022-07-29T03:13:26;20.50;65.30
61916;DHT22;47868;51.326;6.550;2022-07-29T03:15:53;20.50;65.50
61916;DHT22;47868;51.326;6.550;2022-07-29T03:18:19;20.50;65.60
61916;DHT22;47868;51.326;6.550;2022-07-29T03:20:45;20.60;65.30
61916;DHT22;47868;51.326;6.550;2022-07-29T03:23:11;20.50;65.50
61916;DHT22;47868;51.326;6.550;2022-07-29T03:25:36;20.40;65.60
61916;DHT22;47868;51.326;6.550;2022-07-29T03:28:02;20.40;65.70
61916;DHT22;47868;51.326;6.550;2022-07-29T03:30:28;20.40;65.80
61916;DHT22;47868;51.326;6.550;2022-07-29T03:32:56;20.30;66.90
61916;DHT22;47868;51.326;6.550;2022-07-29T03:35:21;20.20;70.20
61916;DHT22;47868;51.326;6.550;2022-07-29T03:37:48;20.20;75.20
61916;DHT22;47868;51.326;6.550;2022-07-29T03:40:18;20.20;99.90
61916;DHT22;47868;51.326;6.550;2022-07-29T03:42:45;20.30;99.90
61916;DHT22;47868;51.326;6.550;2022-07-29T03:45:15;20.40;99.90
61916;DHT22;47868;51.326;6.550;2022-07-29T03:47:51;20.40;99.90
61916;DHT22;47868;51.326;6.550;2022-07-29T03:50:19;20.40;99.90
61916;DHT22;47868;51.326;6.550;2022-07-29T03:52:47;20.50;99.90
61916;DHT22;47868;51.326;6.550;2022-07-29T03:55:14;20.50;99.90
61916;DHT22;47868;51.326;6.550;2022-07-29T03:57:40;20.50;99.90
61916;DHT22;47868;51.326;6.550;2022-07-29T04:00:07;20.50;99.90
61916;DHT22;47868;51.326;6.550;2022-07-29T04:02:34;20.40;99.90
61916;DHT22;47868;51.326;6.550;2022-07-29T04:04:59;20.30;99.90
61916;DHT22;47868;51.326;6.550;2022-07-29T04:07:25;20.30;99.90
61916;DHT22;47868;51.326;6.550;2022-07-29T04:09:51;20.40;99.90
61916;DHT22;47868;51.326;6.550;2022-07-29T04:12:16;20.60;99.90
61916;DHT22;47868;51.326;6.550;2022-07-29T04:14:42;20.70;99.90
61916;DHT22;47868;51.326;6.550;2022-07-29T04:17:08;20.80;99.90
61916;DHT22;47868;51.326;6.550;2022-07-29T04:19:34;20.70;99.90
61916;DHT22;47868;51.326;6.550;2022-07-29T04:22:00;20.80;99.90
61916;DHT22;47868;51.326;6.550;2022-07-29T04:24:26;20.60;99.90
61916;DHT22;47868;51.326;6.550;2022-07-29T04:26:52;20.50;99.90
61916;DHT22;47868;51.326;6.550;2022-07-29T04:29:18;20.50;99.90
61916;DHT22;47868;51.326;6.550;2022-07-29T04:31:45;20.40;99.90
61916;DHT22;47868;51.326;6.550;2022-07-29T04:34:11;20.20;99.90
61916;DHT22;47868;51.326;6.550;2022-07-29T04:36:37;20.00;99.90
61916;DHT22;47868;51.326;6.550;2022-07-29T04:39:03;19.70;99.90
61916;DHT22;47868;51.326;6.550;2022-07-29T04:41:29;19.50;99.90
61916;DHT22;47868;51.326;6.550;2022-07-29T04:43:54;19.20;99.90
61916;DHT22;47868;51.326;6.550;2022-07-29T04:46:21;19.00;99.90
61916;DHT22;47868;51.326;6.550;2022-07-29T04:48:47;18.90;99.90
61916;DHT22;47868;51.326;6.550;2022-07-29T04:51:16;19.20;99.90
61916;DHT22;47868;51.326;6.550;2022-07-29T04:53:42;19.40;99.90
61916;DHT22;47868;51.326;6.550;2022-07-29T04:56:08;19.60;99.90
61916;DHT22;47868;51.326;6.550;2022-07-29T04:58:34;19.70;99.90
61916;DHT22;47868;51.326;6.550;2022-07-29T05:01:00;19.70;99.90
61916;DHT22;47868;51.326;6.550;2022-07-29T05:03:26;19.70;99.90
61916;DHT22;47868;51.326;6.550;2022-07-29T05:05:52;19.70;99.90
61916;DHT22;47868;51.326;6.550;2022-07-29T05:08:17;19.70;99.90
61916;DHT22;47868;51.326;6.550;2022-07-29T05:10:43;19.70;99.90
61916;DHT22;47868;51.326;6.550;2022-07-29T05:13:09;19.70;99.90
61916;DHT22;47868;51.326;6.550;2022-07-29T05:15:35;19.80;99.90
61916;DHT22;47868;51.326;6.550;2022-07-29T05:18:00;19.70;99.90
61916;DHT22;47868;51.326;6.550;2022-07-29T05:20:27;19.70;99.90
61916;DHT22;47868;51.326;6.550;2022-07-29T05:22:55;19.60;99.90
61916;DHT22;47868;51.326;6.550;2022-07-29T05:25:21;19.60;99.90
61916;DHT22;47868;51.326;6.550;2022-07-29T05:27:47;19.50;99.90
61916;DHT22;47868;51.326;6.550;2022-07-29T05:30:13;19.50;99.90
61916;DHT22;47868;51.326;6.550;2022-07-29T05:32:38;19.50;99.90
61916;DHT22;47868;51.326;6.550;2022-07-29T05:35:05;19.50;99.90
61916;DHT22;47868;51.326;6.550;2022-07-29T05:37:30;19.40;99.90
61916;DHT22;47868;51.326;6.550;2022-07-29T05:39:56;19.50;99.90
61916;DHT22;47868;51.326;6.550;2022-07-29T05:42:22;19.60;99.90
61916;DHT22;47868;51.326;6.550;2022-07-29T05:44:48;19.60;99.90
61916;DHT22;47868;51.326;6.550;2022-07-29T05:47:13;19.60;99.90
61916;DHT22;47868;51.326;6.550;2022-07-29T05:49:39;19.70;99.90
61916;DHT22;47868;51.326;6.550;2022-07-29T05:52:05;19.80;99.90
61916;DHT22;47868;51.326;6.550;2022-07-29T05:54:30;19.90;99.90
61916;DHT22;47868;51.326;6.550;2022-07-29T05:56:56;19.90;99.90
61916;DHT22;47868;51.326;6.550;2022-07-29T05:59:22;19.90;99.90
61916;DHT22;47868;51.326;6.550;2022-07-29T06:01:47;19.90;99.90
61916;DHT22;47868;51.326;6.550;2022-07-29T06:04:13;19.90;99.90
61916;DHT22;47868;51.326;6.550;2022-07-29T06:06:39;19.90;99.90
61916;DHT22;47868;51.326;6.550;2022-07-29T06:09:04;19.90;99.90
61916;DHT22;47868;51.326;6.550;2022-07-29T06:11:30;19.90;99.90
61916;DHT22;47868;51.326;6.550;2022-07-29T06:13:56;19.80;99.90
61916;DHT22;47868;51.326;6.550;2022-07-29T06:16:21;19.80;99.90
61916;DHT22;47868;51.326;6.550;2022-07-29T06:18:47;19.80;99.90
61916;DHT22;47868;51.326;6.550;2022-07-29T06:21:12;19.70;99.90
61916;DHT22;47868;51.326;6.550;2022-07-29T06:23:39;19.70;99.90
61916;DHT22;47868;51.326;6.550;2022-07-29T06:26:05;19.60;99.90
61916;DHT22;47868;51.326;6.550;2022-07-29T06:28:31;19.60;99.90
61916;DHT22;47868;51.326;6.550;2022-07-29T06:30:57;19.60;99.90
61916;DHT22;47868;51.326;6.550;2022-07-29T06:33:23;19.50;99.90
61916;DHT22;47868;51.326;6.550;2022-07-29T06:35:49;19.50;99.90
61916;DHT22;47868;51.326;6.550;2022-07-29T06:38:15;19.30;99.90
61916;DHT22;47868;51.326;6.550;2022-07-29T06:40:44;19.20;99.90
61916;DHT22;47868;51.326;6.550;2022-07-29T06:43:34;19.00;99.90
61916;DHT22;47868;51.326;6.550;2022-07-29T06:46:03;18.80;99.90
61916;DHT22;47868;51.326;6.550;2022-07-29T06:48:29;18.80;99.90
61916;DHT22;47868;51.326;6.550;2022-07-29T06:50:55;18.90;99.90
61916;DHT22;47868;51.326;6.550;2022-07-29T06:53:21;19.00;99.90
61916;DHT22;47868;51.326;6.550;2022-07-29T06:55:47;19.00;99.90
61916;DHT22;47868;51.326;6.550;2022-07-29T06:58:12;18.90;99.90
61916;DHT22;47868;51.326;6.550;2022-07-29T07:00:41;18.70;99.90
61916;DHT22;47868;51.326;6.550;2022-07-29T07:03:07;18.60;99.90
61916;DHT22;47868;51.326;6.550;2022-07-29T07:05:33;18.60;99.90
61916;DHT22;47868;51.326;6.550;2022-07-29T07:07:58;18.70;99.90
61916;DHT22;47868;51.326;6.550;2022-07-29T07:10:24;18.80;99.90
61916;DHT22;47868;51.326;6.550;2022-07-29T07:12:50;18.90;99.90
61916;DHT22;47868;51.326;6.550;2022-07-29T07:15:16;18.90;99.90
61916;DHT22;47868;51.326;6.550;2022-07-29T07:17:41;18.70;99.90
61916;DHT22;47868;51.326;6.550;2022-07-29T07:20:07;18.70;99.90
61916;DHT22;47868;51.326;6.550;2022-07-29T07:22:33;18.80;99.90
61916;DHT22;47868;51.326;6.550;2022-07-29T07:24:59;18.90;99.90
61916;DHT22;47868;51.326;6.550;2022-07-29T07:27:24;19.00;99.90
61916;DHT22;47868;51.326;6.550;2022-07-29T07:29:50;19.10;99.90
61916;DHT22;47868;51.326;6.550;2022-07-29T07:32:16;19.20;99.90
61916;DHT22;47868;51.326;6.550;2022-07-29T07:34:44;19.10;99.90
61916;DHT22;47868;51.326;6.550;2022-07-29T07:37:10;19.10;99.90
61916;DHT22;47868;51.326;6.550;2022-07-29T07:39:36;19.00;99.90
61916;DHT22;47868;51.326;6.550;2022-07-29T07:42:01;18.90;99.90
61916;DHT22;47868;51.326;6.550;2022-07-29T07:44:27;18.90;99.90
61916;DHT22;47868;51.326;6.550;2022-07-29T07:46:53;18.90;99.90
61916;DHT22;47868;51.326;6.550;2022-07-29T07:49:18;19.10;99.90
61916;DHT22;47868;51.326;6.550;2022-07-29T07:51:44;19.10;99.90
61916;DHT22;47868;51.326;6.550;2022-07-29T07:54:10;19.20;99.90
61916;DHT22;47868;51.326;6.550;2022-07-29T07:56:36;19.20;99.90
61916;DHT22;47868;51.326;6.550;2022-07-29T07:59:01;19.30;99.90
61916;DHT22;47868;51.326;6.550;2022-07-29T08:01:27;19.40;99.90
61916;DHT22;47868;51.326;6.550;2022-07-29T08:03:53;19.40;99.90
61916;DHT22;47868;51.326;6.550;2022-07-29T08:06:18;19.60;99.90
61916;DHT22;47868;51.326;6.550;2022-07-29T08:08:44;19.70;99.90
61916;DHT22;47868;51.326;6.550;2022-07-29T08:11:10;19.80;99.90
61916;DHT22;47868;51.326;6.550;2022-07-29T08:13:36;19.90;99.90
61916;DHT22;47868;51.326;6.550;2022-07-29T08:16:03;20.00;99.90
61916;DHT22;47868;51.326;6.550;2022-07-29T08:18:39;20.00;99.90
61916;DHT22;47868;51.326;6.550;2022-07-29T08:21:05;20.00;99.90
61916;DHT22;47868;51.326;6.550;2022-07-29T08:23:31;20.10;99.90
61916;DHT22;47868;51.326;6.550;2022-07-29T08:26:07;20.20;99.90
61916;DHT22;47868;51.326;6.550;2022-07-29T08:28:39;20.20;99.90
61916;DHT22;47868;51.326;6.550;2022-07-29T08:31:05;20.40;99.90
61916;DHT22;47868;51.326;6.550;2022-07-29T08:33:32;20.50;99.90
61916;DHT22;47868;51.326;6.550;2022-07-29T08:35:57;20.60;99.90
61916;DHT22;47868;51.326;6.550;2022-07-29T08:38:23;20.70;99.90
61916;DHT22;47868;51.326;6.550;2022-07-29T08:40:49;20.80;99.90
61916;DHT22;47868;51.326;6.550;2022-07-29T08:43:15;20.90;99.90
61916;DHT22;47868;51.326;6.550;2022-07-29T08:45:46;20.80;99.90
61916;DHT22;47868;51.326;6.550;2022-07-29T08:48:23;20.50;99.90
61916;DHT22;47868;51.326;6.550;2022-07-29T08:50:55;20.50;99.90
61916;DHT22;47868;51.326;6.550;2022-07-29T08:53:21;20.40;99.90
61916;DHT22;47868;51.326;6.550;2022-07-29T08:55:49;20.30;99.90
61916;DHT22;47868;51.326;6.550;2022-07-29T08:58:15;20.20;99.90
61916;DHT22;47868;51.326;6.550;2022-07-29T09:00:46;20.00;99.90
61916;DHT22;47868;51.326;6.550;2022-07-29T09:03:15;20.10;99.90
61916;DHT22;47868;51.326;6.550;2022-07-29T09:05:42;20.20;99.90
61916;DHT22;47868;51.326;6.550;2022-07-29T09:08:08;20.10;99.90
61916;DHT22;47868;51.326;6.550;2022-07-29T09:10:35;20.10;99.90
61916;DHT22;47868;51.326;6.550;2022-07-29T09:13:01;20.20;99.90
61916;DHT22;47868;51.326;6.550;2022-07-29T09:15:26;20.20;99.90
61916;DHT22;47868;51.326;6.550;2022-07-29T09:17:52;20.40;99.90
61916;DHT22;47868;51.326;6.550;2022-07-29T09:20:20;20.50;99.90
61916;DHT22;47868;51.326;6.550;2022-07-29T09:22:48;20.50;99.90
61916;DHT22;47868;51.326;6.550;2022-07-29T09:25:32;20.60;99.90
61916;DHT22;47868;51.326;6.550;2022-07-29T09:28:09;20.60;99.90
61916;DHT22;47868;51.326;6.550;2022-07-29T09:30:36;20.50;99.90
61916;DHT22;47868;51.326;6.550;2022-07-29T09:33:05;20.50;99.90
61916;DHT22;47868;51.326;6.550;2022-07-29T09:35:30;20.50;99.90
61916;DHT22;47868;51.326;6.550;2022-07-29T09:37:56;20.50;99.90
61916;DHT22;47868;51.326;6.550;2022-07-29T09:40:27;20.60;99.90
61916;DHT22;47868;51.326;6.550;2022-07-29T09:42:54;20.60;99.90
61916;DHT22;47868;51.326;6.550;2022-07-29T09:45:40;20.70;99.90
61916;DHT22;47868;51.326;6.550;2022-07-29T09:48:23;20.70;99.90
61916;DHT22;47868;51.326;6.550;2022-07-29T09:50:50;20.70;99.90
61916;DHT22;47868;51.326;6.550;2022-07-29T09:53:36;20.70;99.90
61916;DHT22;47868;51.326;6.550;2022-07-29T09:56:03;20.70;99.90
61916;DHT22;47868;51.326;6.550;2022-07-29T09:58:29;20.70;99.90
61916;DHT22;47868;51.326;6.550;2022-07-29T10:00:56;20.80;99.90
61916;DHT22;47868;51.326;6.550;2022-07-29T10:03:23;20.80;99.90
61916;DHT22;47868;51.326;6.550;2022-07-29T10:06:10;20.80;99.90
61916;DHT22;47868;51.326;6.550;2022-07-29T10:08:36;20.70;99.90
61916;DHT22;47868;51.326;6.550;2022-07-29T10:11:15;20.60;99.90
61916;DHT22;47868;51.326;6.550;2022-07-29T10:13:42;20.30;99.90
61916;DHT22;47868;51.326;6.550;2022-07-29T10:16:08;20.20;99.90
61916;DHT22;47868;51.326;6.550;2022-07-29T10:18:34;20.50;99.90
61916;DHT22;47868;51.326;6.550;2022-07-29T10:21:01;20.70;99.90
61916;DHT22;47868;51.326;6.550;2022-07-29T10:23:28;20.80;99.90
61916;DHT22;47868;51.326;6.550;2022-07-29T10:25:54;21.00;99.90
61916;DHT22;47868;51.326;6.550;2022-07-29T10:28:20;21.30;99.90
61916;DHT22;47868;51.326;6.550;2022-07-29T10:30:47;21.50;99.90
61916;DHT22;47868;51.326;6.550;2022-07-29T10:44:18;23.20;99.90
61916;DHT22;47868;51.326;6.550;2022-07-29T10:46:44;23.40;99.90
61916;DHT22;47868;51.326;6.550;2022-07-29T10:49:19;23.40;99.90
61916;DHT22;47868;51.326;6.550;2022-07-29T10:51:57;23.40;99.90
61916;DHT22;47868;51.326;6.550;2022-07-29T10:57:24;23.60;99.90
61916;DHT22;47868;51.326;6.550;2022-07-29T11:05:11;23.10;99.90
61916;DHT22;47868;51.326;6.550;2022-07-29T11:07:40;23.10;99.90
61916;DHT22;47868;51.326;6.550;2022-07-29T11:10:24;23.00;99.90
61916;DHT22;47868;51.326;6.550;2022-07-29T11:12:50;22.80;99.90
61916;DHT22;47868;51.326;6.550;2022-07-29T11:15:21;22.60;99.90
61916;DHT22;47868;51.326;6.550;2022-07-29T11:20:46;22.50;99.90
61916;DHT22;47868;51.326;6.550;2022-07-29T11:31:37;22.70;99.90
61916;DHT22;47868;51.326;6.550;2022-07-29T11:34:29;22.70;99.90
61916;DHT22;47868;51.326;6.550;2022-07-29T11:50:15;22.60;99.90
61916;DHT22;47868;51.326;6.550;2022-07-29T11:52:42;22.50;99.90
61916;DHT22;47868;51.326;6.550;2022-07-29T11:55:10;22.40;99.90
61916;DHT22;47868;51.326;6.550;2022-07-29T11:57:37;22.30;99.90
61916;DHT22;47868;51.326;6.550;2022-07-29T12:00:06;22.20;99.90
61916;DHT22;47868;51.326;6.550;2022-07-29T12:02:41;22.10;99.90
61916;DHT22;47868;51.326;6.550;2022-07-29T12:05:08;22.20;99.90
61916;DHT22;47868;51.326;6.550;2022-07-29T12:07:35;22.20;99.90
61916;DHT22;47868;51.326;6.550;2022-07-29T12:10:03;22.30;99.90
61916;DHT22;47868;51.326;6.550;2022-07-29T12:12:29;22.40;99.90
61916;DHT22;47868;51.326;6.550;2022-07-29T12:14:54;22.40;99.90
61916;DHT22;47868;51.326;6.550;2022-07-29T12:17:31;22.40;99.90
61916;DHT22;47868;51.326;6.550;2022-07-29T12:20:01;22.40;99.90
61916;DHT22;47868;51.326;6.550;2022-07-29T12:22:34;22.40;99.90
61916;DHT22;47868;51.326;6.550;2022-07-29T12:25:08;22.50;99.90
61916;DHT22;47868;51.326;6.550;2022-07-29T12:27:35;22.60;99.90
61916;DHT22;47868;51.326;6.550;2022-07-29T12:30:07;22.70;99.90
61916;DHT22;47868;51.326;6.550;2022-07-29T12:32:37;22.90;99.90
61916;DHT22;47868;51.326;6.550;2022-07-29T12:35:09;23.00;99.90
61916;DHT22;47868;51.326;6.550;2022-07-29T12:37:37;23.20;99.90
61916;DHT22;47868;51.326;6.550;2022-07-29T12:40:04;23.50;99.90
61916;DHT22;47868;51.326;6.550;2022-07-29T12:42:31;23.80;99.90
61916;DHT22;47868;51.326;6.550;2022-07-29T12:44:56;24.10;99.90
61916;DHT22;47868;51.326;6.550;2022-07-29T12:47:22;24.10;99.90
61916;DHT22;47868;51.326;6.550;2022-07-29T12:49:49;24.00;99.90
61916;DHT22;47868;51.326;6.550;2022-07-29T12:52:30;24.20;99.90
61916;DHT22;47868;51.326;6.550;2022-07-29T12:54:56;24.20;99.90
61916;DHT22;47868;51.326;6.550;2022-07-29T12:57:22;24.30;99.90
61916;DHT22;47868;51.326;6.550;2022-07-29T13:02:29;25.50;99.90
61916;DHT22;47868;51.326;6.550;2022-07-29T13:04:59;27.00;99.90
61916;DHT22;47868;51.326;6.550;2022-07-29T13:07:27;28.60;96.30
61916;DHT22;47868;51.326;6.550;2022-07-29T13:10:09;30.00;93.30
61916;DHT22;47868;51.326;6.550;2022-07-29T13:12:35;30.70;84.20
61916;DHT22;47868;51.326;6.550;2022-07-29T13:15:12;31.80;77.70
61916;DHT22;47868;51.326;6.550;2022-07-29T13:17:43;32.90;67.70
61916;DHT22;47868;51.326;6.550;2022-07-29T13:20:11;33.30;63.50
61916;DHT22;47868;51.326;6.550;2022-07-29T13:22:39;32.90;60.80
61916;DHT22;47868;51.326;6.550;2022-07-29T13:25:06;33.20;57.30
61916;DHT22;47868;51.326;6.550;2022-07-29T13:27:33;33.70;56.80
61916;DHT22;47868;51.326;6.550;2022-07-29T13:30:00;33.80;53.70
61916;DHT22;47868;51.326;6.550;2022-07-29T13:32:28;33.20;56.10
61916;DHT22;47868;51.326;6.550;2022-07-29T13:34:58;32.80;56.00
61916;DHT22;47868;51.326;6.550;2022-07-29T13:37:25;32.10;56.50
61916;DHT22;47868;51.326;6.550;2022-07-29T13:39:51;31.50;57.20
61916;DHT22;47868;51.326;6.550;2022-07-29T13:42:19;30.60;57.70
61916;DHT22;47868;51.326;6.550;2022-07-29T13:44:44;30.40;57.30
61916;DHT22;47868;51.326;6.550;2022-07-29T13:47:10;29.70;56.00
61916;DHT22;47868;51.326;6.550;2022-07-29T13:49:36;29.20;56.30
61916;DHT22;47868;51.326;6.550;2022-07-29T13:52:02;28.80;56.30
61916;DHT22;47868;51.326;6.550;2022-07-29T13:54:28;28.30;59.20
61916;DHT22;47868;51.326;6.550;2022-07-29T13:56:54;28.40;59.10
61916;DHT22;47868;51.326;6.550;2022-07-29T13:59:20;28.60;59.50
61916;DHT22;47868;51.326;6.550;2022-07-29T14:01:45;28.80;60.40
61916;DHT22;47868;51.326;6.550;2022-07-29T14:04:11;28.90;58.20
61916;DHT22;47868;51.326;6.550;2022-07-29T14:06:37;28.80;58.30
61916;DHT22;47868;51.326;6.550;2022-07-29T14:09:04;28.70;57.60
61916;DHT22;47868;51.326;6.550;2022-07-29T14:11:36;28.80;58.60
61916;DHT22;47868;51.326;6.550;2022-07-29T14:14:04;28.50;57.10
61916;DHT22;47868;51.326;6.550;2022-07-29T14:16:30;28.60;58.60
61916;DHT22;47868;51.326;6.550;2022-07-29T14:18:55;28.70;58.40
61916;DHT22;47868;51.326;6.550;2022-07-29T14:21:21;28.70;59.30
61916;DHT22;47868;51.326;6.550;2022-07-29T14:23:47;28.90;59.80
61916;DHT22;47868;51.326;6.550;2022-07-29T14:26:13;28.90;58.00
61916;DHT22;47868;51.326;6.550;2022-07-29T14:28:38;29.00;56.80
61916;DHT22;47868;51.326;6.550;2022-07-29T14:31:04;28.90;55.60
61916;DHT22;47868;51.326;6.550;2022-07-29T14:33:30;28.90;57.60
61916;DHT22;47868;51.326;6.550;2022-07-29T14:35:55;29.00;58.10
61916;DHT22;47868;51.326;6.550;2022-07-29T14:38:21;29.00;55.80
61916;DHT22;47868;51.326;6.550;2022-07-29T14:40:47;29.20;56.90
61916;DHT22;47868;51.326;6.550;2022-07-29T14:43:15;29.20;54.00
61916;DHT22;47868;51.326;6.550;2022-07-29T14:45:41;29.00;55.20
61916;DHT22;47868;51.326;6.550;2022-07-29T14:48:07;28.80;55.80
61916;DHT22;47868;51.326;6.550;2022-07-29T14:50:33;28.80;56.60
61916;DHT22;47868;51.326;6.550;2022-07-29T14:52:59;28.80;58.10
61916;DHT22;47868;51.326;6.550;2022-07-29T14:55:25;28.90;57.40
61916;DHT22;47868;51.326;6.550;2022-07-29T14:57:51;28.90;56.80
61916;DHT22;47868;51.326;6.550;2022-07-29T15:00:17;28.90;57.20
61916;DHT22;47868;51.326;6.550;2022-07-29T15:02:43;29.10;57.20
61916;DHT22;47868;51.326;6.550;2022-07-29T15:05:08;29.50;56.70
61916;DHT22;47868;51.326;6.550;2022-07-29T15:07:34;30.10;56.30
61916;DHT22;47868;51.326;6.550;2022-07-29T15:10:00;30.60;54.10
61916;DHT22;47868;51.326;6.550;2022-07-29T15:12:25;34.90;49.30
61916;DHT22;47868;51.326;6.550;2022-07-29T15:14:51;38.20;45.10
61916;DHT22;47868;51.326;6.550;2022-07-29T15:17:17;41.50;40.00
61916;DHT22;47868;51.326;6.550;2022-07-29T15:19:42;43.10;34.90
61916;DHT22;47868;51.326;6.550;2022-07-29T15:22:08;44.70;30.70
61916;DHT22;47868;51.326;6.550;2022-07-29T15:24:34;44.70;29.50
61916;DHT22;47868;51.326;6.550;2022-07-29T15:26:59;44.90;28.90
61916;DHT22;47868;51.326;6.550;2022-07-29T15:29:25;44.30;28.50
61916;DHT22;47868;51.326;6.550;2022-07-29T15:31:51;43.00;29.40
61916;DHT22;47868;51.326;6.550;2022-07-29T15:34:16;41.80;29.50
61916;DHT22;47868;51.326;6.550;2022-07-29T15:36:42;41.70;30.40
61916;DHT22;47868;51.326;6.550;2022-07-29T15:39:08;41.70;30.00
61916;DHT22;47868;51.326;6.550;2022-07-29T15:41:34;42.60;30.10
61916;DHT22;47868;51.326;6.550;2022-07-29T15:44:00;43.90;29.50
61916;DHT22;47868;51.326;6.550;2022-07-29T15:46:26;44.30;28.00
61916;DHT22;47868;51.326;6.550;2022-07-29T15:49:10;44.50;27.70
61916;DHT22;47868;51.326;6.550;2022-07-29T15:51:36;42.60;29.00
61916;DHT22;47868;51.326;6.550;2022-07-29T15:54:03;40.10;30.20
61916;DHT22;47868;51.326;6.550;2022-07-29T15:56:30;37.70;33.10
61916;DHT22;47868;51.326;6.550;2022-07-29T15:58:56;36.00;36.00
61916;DHT22;47868;51.326;6.550;2022-07-29T16:01:21;34.90;37.80
61916;DHT22;47868;51.326;6.550;2022-07-29T16:03:47;34.20;38.20
61916;DHT22;47868;51.326;6.550;2022-07-29T16:06:13;33.30;39.10
61916;DHT22;47868;51.326;6.550;2022-07-29T16:08:39;32.40;39.40
61916;DHT22;47868;51.326;6.550;2022-07-29T16:11:04;32.10;42.00
61916;DHT22;47868;51.326;6.550;2022-07-29T16:13:30;31.70;41.50
61916;DHT22;47868;51.326;6.550;2022-07-29T16:15:56;31.50;42.10
61916;DHT22;47868;51.326;6.550;2022-07-29T16:18:21;31.40;42.60
61916;DHT22;47868;51.326;6.550;2022-07-29T16:20:47;31.10;42.60
61916;DHT22;47868;51.326;6.550;2022-07-29T16:23:13;30.60;44.10
61916;DHT22;47868;51.326;6.550;2022-07-29T16:25:41;30.40;44.20
61916;DHT22;47868;51.326;6.550;2022-07-29T16:28:07;30.10;44.40
61916;DHT22;47868;51.326;6.550;2022-07-29T16:30:34;29.70;43.50
61916;DHT22;47868;51.326;6.550;2022-07-29T16:33:00;29.40;44.40
61916;DHT22;47868;51.326;6.550;2022-07-29T16:35:26;29.20;45.10
61916;DHT22;47868;51.326;6.550;2022-07-29T16:37:55;29.00;45.00
61916;DHT22;47868;51.326;6.550;2022-07-29T16:40:20;28.90;45.70